createdAt,value
2019-02-06T00:01:07.437Z,99.20
2019-02-06T00:03:37.152Z,99.40
2019-02-06T00:06:07.311Z,99.90
2019-02-06T00:08:37.001Z,99.90
2019-02-06T00:11:06.757Z,99.90
2019-02-06T00:13:37.540Z,99.90
2019-02-06T00:16:07.407Z,99.90
2019-02-06T00:18:37.378Z,99.90
2019-02-06T00:21:07.222Z,99.90
2019-02-06T00:23:36.902Z,99.90
2019-02-06T00:26:06.670Z,99.90
2019-02-06T00:28:36.500Z,99.90
2019-02-06T00:31:06.502Z,99.90
2019-02-06T00:33:36.228Z,99.90
2019-02-06T00:36:06.190Z,99.90
2019-02-06T00:38:35.945Z,99.90
2019-02-06T00:41:05.755Z,99.90
2019-02-06T00:43:35.570Z,99.90
2019-02-06T00:46:05.709Z,99.80
2019-02-06T00:48:35.439Z,99.50
2019-02-06T00:51:05.243Z,99.90
2019-02-06T00:53:35.127Z,99.50
2019-02-06T00:56:05.378Z,99.90
2019-02-06T00:58:35.182Z,98.80
2019-02-06T01:01:05.564Z,99.70
2019-02-06T01:03:35.424Z,98.70
2019-02-06T01:06:05.365Z,99.40
2019-02-06T01:08:35.119Z,98.20
2019-02-06T01:11:05.390Z,99.90
2019-02-06T01:13:35.088Z,99.90
2019-02-06T01:16:04.928Z,99.90
2019-02-06T01:18:34.661Z,98.90
2019-02-06T01:21:04.352Z,98.50
2019-02-06T01:23:34.342Z,99.50
2019-02-06T01:26:04.601Z,98.60
2019-02-06T01:28:34.322Z,99.30
2019-02-06T01:31:12.983Z,98.60
2019-02-06T01:33:42.707Z,97.30
2019-02-06T01:36:12.476Z,96.60
2019-02-06T01:38:42.583Z,96.90
2019-02-06T01:41:12.281Z,96.90
2019-02-06T01:43:42.075Z,97.60
2019-02-06T01:46:11.802Z,97.40
2019-02-06T01:48:41.830Z,97.40
2019-02-06T01:51:11.540Z,97.80
2019-02-06T01:53:41.994Z,99.00
2019-02-06T01:56:11.668Z,99.30
2019-02-06T01:58:41.400Z,98.40
2019-02-06T02:01:11.329Z,97.50
2019-02-06T02:03:41.174Z,99.90
2019-02-06T02:06:10.904Z,98.70
2019-02-06T02:08:48.588Z,99.90
2019-02-06T02:11:18.420Z,99.90
2019-02-06T02:13:48.116Z,99.90
2019-02-06T02:16:17.891Z,99.90
2019-02-06T02:18:47.629Z,99.50
2019-02-06T02:21:17.331Z,99.90
2019-02-06T02:23:47.239Z,98.60
2019-02-06T02:26:17.098Z,98.50
2019-02-06T02:28:46.944Z,99.00
2019-02-06T02:31:16.736Z,98.40
2019-02-06T02:33:46.430Z,98.20
2019-02-06T02:36:16.748Z,96.90
2019-02-06T02:38:46.621Z,96.40
2019-02-06T02:41:16.362Z,98.10
2019-02-06T02:43:46.046Z,98.20
2019-02-06T02:46:15.920Z,98.80
2019-02-06T02:48:45.616Z,99.60
2019-02-06T02:51:15.803Z,99.90
2019-02-06T02:53:45.591Z,99.60
2019-02-06T02:56:15.293Z,98.30
2019-02-06T02:58:45.046Z,98.30
2019-02-06T03:01:39.684Z,98.60
2019-02-06T03:04:13.596Z,98.30
2019-02-06T03:06:43.864Z,98.20
2019-02-06T03:09:14.204Z,96.20
2019-02-06T03:11:44.052Z,97.20
2019-02-06T03:14:14.217Z,98.90
2019-02-06T03:16:44.058Z,99.90
2019-02-06T03:19:13.796Z,99.90
2019-02-06T03:21:43.571Z,99.90
2019-02-06T03:24:13.246Z,99.90
2019-02-06T03:26:43.260Z,99.90
2019-02-06T03:29:13.367Z,99.90
2019-02-06T03:31:43.132Z,99.90
2019-02-06T03:34:12.920Z,99.90
2019-02-06T03:36:42.751Z,99.90
2019-02-06T03:39:12.503Z,99.90
2019-02-06T03:41:42.378Z,99.90
2019-02-06T03:44:12.399Z,99.90
2019-02-06T03:46:42.210Z,99.90
2019-02-06T03:49:12.111Z,99.90
2019-02-06T03:51:41.869Z,99.90
2019-02-06T03:54:11.560Z,99.90
2019-02-06T03:56:41.444Z,99.40
2019-02-06T03:59:11.620Z,99.90
2019-02-06T04:01:41.559Z,99.90
2019-02-06T04:04:11.432Z,99.90
2019-02-06T04:06:52.745Z,98.70
2019-02-06T04:09:12.668Z,98.00
2019-02-06T04:11:42.381Z,97.90
2019-02-06T04:14:12.083Z,97.90
2019-02-06T04:16:41.952Z,99.90
2019-02-06T04:19:11.648Z,99.90
2019-02-06T04:21:41.421Z,99.90
2019-02-06T04:24:11.131Z,99.80
2019-02-06T04:26:41.440Z,99.00
2019-02-06T04:29:11.160Z,99.90
2019-02-06T04:31:41.096Z,99.20
2019-02-06T04:34:10.954Z,98.80
2019-02-06T04:36:40.696Z,97.70
2019-02-06T04:39:10.472Z,97.90
2019-02-06T04:41:40.570Z,98.30
2019-02-06T04:44:10.422Z,99.80
2019-02-06T04:46:40.302Z,99.90
2019-02-06T04:49:10.098Z,99.90
2019-02-06T04:51:39.844Z,99.90
2019-02-06T04:54:09.629Z,99.90
2019-02-06T04:56:39.825Z,99.90
2019-02-06T04:59:09.595Z,99.90
2019-02-06T05:01:39.421Z,99.90
2019-02-06T05:04:09.347Z,99.90
2019-02-06T05:06:39.029Z,99.90
2019-02-06T05:09:09.253Z,99.90
2019-02-06T05:11:39.436Z,99.90
2019-02-06T05:14:09.171Z,99.90
2019-02-06T05:16:38.984Z,99.90
2019-02-06T05:19:08.682Z,99.90
2019-02-06T05:21:38.537Z,99.90
2019-02-06T05:24:08.294Z,99.90
2019-02-06T05:26:38.511Z,99.90
2019-02-06T05:29:08.231Z,99.90
2019-02-06T05:31:38.055Z,99.90
2019-02-06T05:34:07.810Z,99.90
2019-02-06T05:36:37.525Z,99.90
2019-02-06T05:39:09.063Z,99.90
2019-02-06T05:41:39.081Z,99.90
2019-02-06T05:44:08.925Z,99.90
2019-02-06T05:46:38.753Z,99.90
2019-02-06T05:49:08.548Z,99.90
2019-02-06T05:51:38.283Z,99.90
2019-02-06T05:54:08.043Z,99.90
2019-02-06T05:56:38.366Z,99.90
2019-02-06T05:59:08.151Z,99.90
2019-02-06T06:01:37.984Z,99.90
2019-02-06T06:04:07.826Z,99.90
2019-02-06T06:06:37.569Z,99.90
2019-02-06T06:09:09.288Z,99.10
2019-02-06T06:11:39.314Z,98.60
2019-02-06T06:14:09.019Z,99.10
2019-02-06T06:16:38.931Z,99.60
2019-02-06T06:19:08.671Z,98.70
2019-02-06T06:21:40.738Z,96.60
2019-02-06T06:24:10.585Z,97.10
2019-02-06T06:26:40.860Z,97.00
2019-02-06T06:29:10.592Z,96.00
2019-02-06T06:31:40.357Z,95.60
2019-02-06T06:34:10.091Z,94.90
2019-02-06T06:36:39.813Z,94.50
2019-02-06T06:39:09.799Z,96.30
2019-02-06T06:41:39.707Z,94.90
2019-02-06T06:44:09.473Z,93.50
2019-02-06T06:46:39.262Z,93.40
2019-02-06T06:49:09.019Z,92.50
2019-02-06T06:51:38.786Z,91.90
2019-02-06T06:54:08.493Z,91.10
2019-02-06T06:56:38.268Z,90.60
2019-02-06T06:59:08.048Z,90.80
2019-02-06T07:01:37.819Z,89.00
2019-02-06T07:04:07.652Z,89.30
2019-02-06T07:06:37.349Z,86.90
2019-02-06T07:09:09.607Z,85.80
2019-02-06T07:11:41.111Z,84.50
2019-02-06T07:14:10.944Z,87.40
2019-02-06T07:16:40.838Z,86.40
2019-02-06T07:19:10.688Z,85.80
2019-02-06T07:21:40.436Z,84.00
2019-02-06T07:24:10.671Z,83.10
2019-02-06T07:26:40.565Z,81.90
2019-02-06T07:29:10.257Z,84.20
2019-02-06T07:31:40.141Z,81.90
2019-02-06T07:34:09.982Z,82.60
2019-02-06T07:36:39.709Z,82.70
2019-02-06T07:39:10.395Z,81.60
2019-02-06T07:41:40.129Z,79.10
2019-02-06T07:44:10.083Z,78.00
2019-02-06T07:46:39.886Z,77.50
2019-02-06T07:49:09.670Z,76.10
2019-02-06T07:51:39.458Z,78.10
2019-02-06T07:54:09.470Z,75.90
2019-02-06T07:56:39.360Z,74.10
2019-02-06T07:59:09.160Z,74.10
2019-02-06T08:01:38.972Z,74.30
2019-02-06T08:04:08.782Z,73.90
2019-02-06T08:06:38.727Z,74.10
2019-02-06T08:09:10.200Z,73.70
2019-02-06T08:11:39.993Z,72.60
2019-02-06T08:14:09.724Z,69.40
2019-02-06T08:16:39.711Z,72.10
2019-02-06T08:19:09.401Z,72.60
2019-02-06T08:21:39.101Z,70.10
2019-02-06T08:24:08.851Z,69.10
2019-02-06T08:26:38.595Z,67.30
2019-02-06T08:29:08.410Z,67.00
2019-02-06T08:31:38.142Z,63.30
2019-02-06T08:34:07.981Z,61.80
2019-02-06T08:36:37.807Z,63.10
2019-02-06T08:39:09.556Z,63.40
2019-02-06T08:41:39.316Z,64.20
2019-02-06T08:44:09.059Z,64.20
2019-02-06T08:46:38.874Z,61.60
2019-02-06T08:49:17.678Z,68.50
2019-02-06T08:51:47.574Z,63.60
2019-02-06T08:54:20.187Z,63.30
2019-02-06T08:56:48.923Z,58.70
2019-02-06T08:59:29.228Z,56.00
2019-02-06T09:01:59.405Z,55.50
2019-02-06T09:04:29.158Z,53.00
2019-02-06T09:06:58.928Z,51.80
2019-02-06T09:09:28.702Z,50.40
2019-02-06T09:11:58.451Z,49.20
2019-02-06T09:14:28.438Z,51.80
2019-02-06T09:16:58.643Z,50.10
2019-02-06T09:19:28.442Z,49.00
2019-02-06T09:21:58.228Z,48.30
2019-02-06T09:24:28.004Z,46.70
2019-02-06T09:26:57.745Z,48.60
2019-02-06T09:29:27.495Z,45.90
2019-02-06T09:31:59.485Z,47.50
2019-02-06T09:34:29.295Z,49.30
2019-02-06T09:36:59.205Z,50.60
2019-02-06T09:39:28.978Z,51.20
2019-02-06T09:41:58.834Z,49.20
2019-02-06T09:44:28.683Z,48.80
2019-02-06T09:46:58.835Z,47.30
2019-02-06T09:49:28.811Z,50.70
2019-02-06T09:51:58.596Z,45.90
2019-02-06T09:54:28.325Z,48.10
2019-02-06T09:56:58.119Z,47.10
2019-02-06T09:59:27.821Z,40.10
2019-02-06T10:01:58.069Z,39.50
2019-02-06T10:04:27.927Z,45.60
2019-02-06T10:06:57.753Z,47.90
2019-02-06T10:09:27.522Z,46.70
2019-02-06T10:11:57.286Z,50.20
2019-02-06T10:14:27.151Z,47.00
2019-02-06T10:16:57.237Z,49.20
2019-02-06T10:19:29.026Z,43.10
2019-02-06T10:21:58.824Z,41.00
2019-02-06T10:24:28.594Z,41.10
2019-02-06T10:26:58.365Z,46.40
2019-02-06T10:29:28.106Z,48.40
2019-02-06T10:31:57.871Z,42.60
2019-02-06T10:34:27.590Z,45.00
2019-02-06T10:36:57.452Z,43.30
2019-02-06T10:39:34.222Z,41.10
2019-02-06T10:41:58.507Z,43.50
2019-02-06T10:44:28.782Z,43.40
2019-02-06T10:46:58.600Z,47.90
2019-02-06T10:49:28.511Z,44.00
2019-02-06T10:51:58.387Z,41.80
2019-02-06T10:54:28.195Z,50.30
2019-02-06T10:56:58.103Z,47.20
2019-02-06T10:59:28.299Z,52.20
2019-02-06T11:01:58.171Z,49.60
2019-02-06T11:04:27.933Z,52.30
2019-02-06T11:06:57.828Z,50.90
2019-02-06T11:09:27.606Z,52.30
2019-02-06T11:11:57.346Z,53.80
2019-02-06T11:14:27.617Z,55.20
2019-02-06T11:16:57.348Z,50.90
2019-02-06T11:19:27.203Z,54.10
2019-02-06T11:21:56.883Z,56.50
2019-02-06T11:24:26.940Z,55.60
2019-02-06T11:26:56.822Z,58.40
2019-02-06T11:29:27.020Z,53.80
2019-02-06T11:31:56.774Z,51.80
2019-02-06T11:34:26.589Z,52.90
2019-02-06T11:36:57.776Z,55.40
2019-02-06T11:39:27.550Z,61.70
2019-02-06T11:41:57.264Z,55.80
2019-02-06T11:44:27.045Z,53.60
2019-02-06T11:46:56.735Z,61.30
2019-02-06T11:49:32.631Z,61.90
2019-02-06T11:52:02.477Z,56.30
2019-02-06T11:54:32.263Z,56.50
2019-02-06T11:57:02.661Z,62.60
2019-02-06T11:59:32.410Z,62.30
2019-02-06T12:02:02.161Z,55.60
2019-02-06T12:04:31.861Z,52.10
2019-02-06T12:07:03.261Z,57.60
2019-02-06T12:09:33.105Z,58.50
2019-02-06T12:12:03.012Z,61.60
2019-02-06T12:14:32.728Z,61.20
2019-02-06T12:17:02.406Z,69.20
2019-02-06T12:19:32.159Z,62.80
2019-02-06T12:22:01.856Z,62.80
2019-02-06T12:24:31.608Z,61.10
2019-02-06T12:27:01.422Z,66.70
2019-02-06T12:29:31.459Z,64.50
2019-02-06T12:32:01.202Z,64.20
2019-02-06T12:34:31.118Z,63.80
2019-02-06T12:37:01.025Z,64.90
2019-02-06T12:39:30.776Z,63.50
2019-02-06T12:42:01.076Z,66.90
2019-02-06T12:44:30.831Z,67.20
2019-02-06T12:47:00.587Z,68.00
2019-02-06T12:49:30.421Z,70.70
2019-02-06T12:52:00.247Z,71.90
2019-02-06T12:54:30.141Z,77.00
2019-02-06T12:56:59.825Z,67.40
2019-02-06T12:59:29.905Z,70.80
2019-02-06T13:01:59.804Z,74.20
2019-02-06T13:04:29.561Z,70.10
2019-02-06T13:07:00.195Z,76.40
2019-02-06T13:09:30.177Z,71.90
2019-02-06T13:11:59.943Z,69.50
2019-02-06T13:14:29.877Z,80.10
2019-02-06T13:16:59.767Z,78.70
2019-02-06T13:19:32.461Z,74.80
2019-02-06T13:22:02.284Z,72.10
2019-02-06T13:24:32.044Z,69.80
2019-02-06T13:27:01.855Z,75.30
2019-02-06T13:29:31.650Z,71.50
2019-02-06T13:32:01.383Z,70.30
2019-02-06T13:34:31.156Z,75.50
2019-02-06T13:37:01.080Z,71.00
2019-02-06T13:39:33.044Z,67.70
2019-02-06T13:42:05.534Z,70.70
2019-02-06T13:44:34.610Z,72.50
2019-02-06T13:47:04.601Z,68.80
2019-02-06T13:49:34.303Z,68.60
2019-02-06T13:52:04.189Z,67.50
2019-02-06T13:54:33.982Z,71.00
2019-02-06T13:57:05.263Z,74.90
2019-02-06T13:59:35.104Z,75.40
2019-02-06T14:02:04.991Z,75.80
2019-02-06T14:04:34.822Z,75.20
2019-02-06T14:07:04.768Z,79.90
2019-02-06T14:09:34.472Z,77.80
2019-02-06T14:12:04.467Z,80.70
2019-02-06T14:14:34.248Z,77.70
2019-02-06T14:17:04.046Z,80.90
2019-02-06T14:19:34.219Z,76.60
2019-02-06T14:22:04.238Z,81.50
2019-02-06T14:24:54.224Z,82.00
2019-02-06T14:28:14.309Z,82.20
2019-02-06T14:31:26.320Z,80.50
2019-02-06T14:34:37.325Z,78.80
2019-02-06T14:37:29.558Z,88.60
2019-02-06T14:40:31.248Z,86.00
2019-02-06T14:43:42.647Z,83.20
2019-02-06T14:47:11.359Z,81.40
2019-02-06T14:50:13.606Z,86.80
2019-02-06T14:53:26.839Z,89.70
2019-02-06T14:56:29.874Z,90.40
2019-02-06T14:59:33.462Z,87.50
2019-02-06T15:03:05.484Z,85.40
2019-02-06T15:06:16.670Z,90.30
2019-02-06T15:09:29.915Z,91.30
2019-02-06T15:12:35.392Z,93.50
2019-02-06T15:15:31.128Z,91.60
2019-02-06T15:18:23.303Z,90.70
2019-02-06T15:21:30.556Z,90.50
2019-02-06T15:24:44.211Z,91.70
2019-02-06T15:27:49.356Z,91.20
2019-02-06T15:30:42.472Z,90.90
2019-02-06T15:34:07.203Z,93.60
2019-02-06T15:36:53.835Z,94.70
2019-02-06T15:39:57.498Z,93.50
2019-02-06T15:42:56.541Z,93.20
2019-02-06T15:45:58.214Z,95.20
2019-02-06T15:49:06.199Z,95.30
2019-02-06T15:52:11.619Z,94.10
2019-02-06T15:55:21.639Z,95.20
2019-02-06T15:58:02.621Z,95.30
2019-02-06T16:01:10.635Z,95.90
2019-02-06T16:04:39.299Z,96.10
2019-02-06T16:07:36.859Z,96.80
2019-02-06T16:11:02.795Z,96.30
2019-02-06T16:14:04.903Z,97.80
2019-02-06T16:17:20.112Z,99.60
2019-02-06T16:20:09.657Z,99.90
2019-02-06T16:23:06.555Z,99.90
2019-02-06T16:26:29.374Z,99.50
2019-02-06T16:29:34.556Z,99.90
2019-02-06T16:32:28.514Z,99.90
2019-02-06T16:35:37.487Z,99.90
2019-02-06T16:38:54.180Z,99.90
2019-02-06T16:41:36.504Z,99.90
2019-02-06T16:44:40.239Z,99.90
2019-02-06T16:47:48.431Z,99.90
2019-02-06T16:50:46.268Z,99.90
2019-02-06T16:53:45.805Z,99.90
2019-02-06T16:56:39.693Z,99.90
2019-02-06T16:59:56.667Z,99.90
2019-02-06T17:02:57.390Z,99.90
2019-02-06T17:06:09.612Z,99.90
2019-02-06T17:09:23.029Z,99.90
2019-02-06T17:12:42.366Z,99.90
2019-02-06T17:15:46.166Z,99.90
2019-02-06T17:18:58.580Z,99.90
2019-02-06T17:22:07.000Z,99.90
2019-02-06T17:25:20.577Z,99.90
2019-02-06T17:28:27.129Z,99.90
2019-02-06T17:31:55.973Z,99.90
2019-02-06T17:34:46.984Z,99.90
2019-02-06T17:37:53.860Z,99.90
2019-02-06T17:40:51.448Z,99.90
2019-02-06T17:44:12.746Z,99.90
2019-02-06T17:46:53.395Z,99.90
2019-02-06T17:50:17.862Z,99.90
2019-02-06T17:53:34.657Z,99.90
2019-02-06T17:56:04.591Z,99.90
2019-02-06T17:58:37.921Z,99.90
2019-02-06T18:01:15.384Z,99.90
2019-02-06T18:03:51.823Z,99.90
2019-02-06T18:06:21.540Z,99.90
2019-02-06T18:08:56.791Z,99.90
2019-02-06T18:11:22.835Z,99.90
2019-02-06T18:13:52.810Z,99.90
2019-02-06T18:16:22.792Z,99.90
2019-02-06T18:18:52.613Z,99.90
2019-02-06T18:21:22.398Z,99.90
2019-02-06T18:23:52.210Z,99.90
2019-02-06T18:26:21.959Z,99.90
2019-02-06T18:28:52.140Z,99.90
2019-02-06T18:31:21.909Z,99.90
2019-02-06T18:33:51.779Z,99.90
2019-02-06T18:36:21.528Z,99.90
2019-02-06T18:38:52.968Z,99.90
2019-02-06T18:41:22.776Z,99.90
2019-02-06T18:43:52.589Z,99.90
2019-02-06T18:46:22.438Z,99.90
2019-02-06T18:48:52.312Z,99.90
2019-02-06T18:51:22.060Z,99.90
2019-02-06T18:53:52.120Z,99.90
2019-02-06T18:56:21.951Z,99.90
2019-02-06T18:58:51.779Z,99.90
2019-02-06T19:01:21.583Z,99.90
2019-02-06T19:03:51.884Z,99.90
2019-02-06T19:06:21.930Z,99.90
2019-02-06T19:08:51.829Z,99.90
2019-02-06T19:11:24.317Z,99.90
2019-02-06T19:13:53.071Z,99.90
2019-02-06T19:16:22.842Z,99.90
2019-02-06T19:18:52.698Z,99.90
2019-02-06T19:21:22.615Z,99.90
2019-02-06T19:23:52.469Z,99.90
2019-02-06T19:26:22.336Z,99.90
2019-02-06T19:28:52.242Z,99.90
2019-02-06T19:31:22.056Z,99.90
2019-02-06T19:33:51.846Z,99.90
2019-02-06T19:36:22.036Z,99.90
2019-02-06T19:38:51.807Z,99.90
2019-02-06T19:41:24.557Z,99.90
2019-02-06T19:43:54.336Z,99.90
2019-02-06T19:46:24.123Z,99.90
2019-02-06T19:48:54.111Z,99.90
2019-02-06T19:51:25.880Z,99.90
2019-02-06T19:53:55.690Z,99.90
2019-02-06T19:56:25.502Z,99.90
2019-02-06T19:58:55.387Z,99.90
2019-02-06T20:01:25.148Z,99.90
2019-02-06T20:03:54.869Z,99.90
2019-02-06T20:06:32.884Z,99.90
2019-02-06T20:09:08.485Z,99.90
2019-02-06T20:11:38.716Z,99.90
2019-02-06T20:14:10.062Z,99.90
2019-02-06T20:16:43.037Z,99.90
2019-02-06T20:19:13.160Z,99.90
2019-02-06T20:21:44.543Z,99.90
2019-02-06T20:24:14.823Z,99.90
2019-02-06T20:26:45.042Z,99.90
2019-02-06T20:29:14.892Z,99.90
2019-02-06T20:31:44.771Z,99.90
2019-02-06T20:34:16.933Z,99.90
2019-02-06T20:36:46.974Z,99.90
2019-02-06T20:39:16.704Z,99.90
2019-02-06T20:41:46.534Z,99.90
2019-02-06T20:44:16.278Z,99.90
2019-02-06T20:46:46.268Z,99.90
2019-02-06T20:49:17.164Z,99.90
2019-02-06T20:51:47.289Z,99.90
2019-02-06T20:54:17.108Z,99.90
2019-02-06T20:56:47.232Z,99.90
2019-02-06T20:59:17.078Z,99.90
2019-02-06T21:01:47.146Z,99.90
2019-02-06T21:04:16.883Z,99.90
2019-02-06T21:06:46.958Z,99.90
2019-02-06T21:09:19.041Z,99.90
2019-02-06T21:11:48.861Z,99.90
2019-02-06T21:14:20.415Z,99.90
2019-02-06T21:16:50.191Z,99.90
2019-02-06T21:19:21.782Z,99.90
2019-02-06T21:21:54.209Z,99.90
2019-02-06T21:24:24.131Z,99.90
2019-02-06T21:26:57.963Z,99.90
2019-02-06T21:29:28.138Z,99.90
2019-02-06T21:31:57.867Z,99.90
2019-02-06T21:34:27.638Z,99.90
2019-02-06T21:36:57.503Z,99.90
2019-02-06T21:39:27.362Z,99.90
2019-02-06T21:41:57.129Z,99.90
2019-02-06T21:44:26.900Z,99.90
2019-02-06T21:46:57.012Z,99.90
2019-02-06T21:49:27.046Z,99.90
2019-02-06T21:51:56.760Z,99.90
2019-02-06T21:54:26.556Z,99.90
2019-02-06T21:56:56.419Z,99.90
2019-02-06T21:59:26.400Z,99.90
2019-02-06T22:01:56.127Z,99.90
2019-02-06T22:04:26.388Z,99.90
2019-02-06T22:06:56.241Z,99.90
2019-02-06T22:09:26.069Z,99.90
2019-02-06T22:11:55.834Z,99.90
2019-02-06T22:14:25.581Z,99.90
2019-02-06T22:16:55.358Z,99.90
2019-02-06T22:19:25.176Z,99.90
2019-02-06T22:21:55.026Z,99.90
2019-02-06T22:24:24.790Z,99.90
2019-02-06T22:26:54.526Z,99.90
2019-02-06T22:29:24.398Z,99.90
2019-02-06T22:31:54.276Z,99.90
2019-02-06T22:34:24.018Z,99.90
2019-02-06T22:36:56.872Z,99.90
2019-02-06T22:39:26.712Z,99.90
2019-02-06T22:41:56.472Z,99.90
2019-02-06T22:44:26.227Z,99.90
2019-02-06T22:46:56.516Z,99.90
2019-02-06T22:49:26.319Z,99.90
2019-02-06T22:51:56.014Z,99.90
2019-02-06T22:54:25.892Z,99.90
2019-02-06T22:56:56.326Z,99.90
2019-02-06T22:59:26.072Z,99.90
2019-02-06T23:01:58.094Z,99.90
2019-02-06T23:04:27.854Z,99.90
2019-02-06T23:06:57.637Z,99.90
2019-02-06T23:09:27.440Z,99.90
2019-02-06T23:11:57.279Z,99.90
2019-02-06T23:14:27.536Z,99.90
2019-02-06T23:16:57.223Z,99.90
2019-02-06T23:19:27.144Z,99.90
2019-02-06T23:21:56.918Z,99.90
2019-02-06T23:24:26.731Z,99.90
2019-02-06T23:26:56.430Z,99.90
2019-02-06T23:29:26.214Z,99.90
2019-02-06T23:31:55.948Z,99.90
2019-02-06T23:34:25.727Z,99.90
2019-02-06T23:36:55.474Z,99.90
2019-02-06T23:39:25.174Z,99.90
2019-02-06T23:41:55.405Z,99.90
2019-02-06T23:44:28.952Z,99.90
2019-02-06T23:46:56.554Z,99.90
2019-02-06T23:49:26.730Z,99.90
2019-02-06T23:51:56.609Z,99.90
2019-02-06T23:54:26.383Z,99.90
2019-02-06T23:56:56.479Z,99.90
2019-02-06T23:59:26.254Z,99.90
